sensor_id;sensor_type;location;lat;lon;timestamp;P1;durP1;ratioP1;P2;durP2;ratioP2
8333;SDS011;4204;43.004;23.052;2023-04-15T00:02:14;7.93;;;3.80;;
8333;SDS011;4204;43.004;23.052;2023-04-15T00:04:43;6.03;;;3.47;;
8333;SDS011;4204;43.004;23.052;2023-04-15T00:07:11;5.73;;;2.90;;
8333;SDS011;4204;43.004;23.052;2023-04-15T00:09:40;8.83;;;3.93;;
8333;SDS011;4204;43.004;23.052;2023-04-15T00:12:08;7.90;;;3.57;;
8333;SDS011;4204;43.004;23.052;2023-04-15T00:14:35;6.63;;;3.17;;
8333;SDS011;4204;43.004;23.052;2023-04-15T00:17:04;3.87;;;3.10;;
8333;SDS011;4204;43.004;23.052;2023-04-15T00:19:33;5.20;;;2.90;;
8333;SDS011;4204;43.004;23.052;2023-04-15T00:22:01;6.23;;;2.87;;
8333;SDS011;4204;43.004;23.052;2023-04-15T00:24:29;3.97;;;2.60;;
8333;SDS011;4204;43.004;23.052;2023-04-15T00:26:57;4.10;;;2.67;;
8333;SDS011;4204;43.004;23.052;2023-04-15T00:29:25;4.43;;;2.70;;
8333;SDS011;4204;43.004;23.052;2023-04-15T00:31:53;3.50;;;2.30;;
8333;SDS011;4204;43.004;23.052;2023-04-15T00:34:22;3.77;;;2.47;;
8333;SDS011;4204;43.004;23.052;2023-04-15T00:36:51;5.53;;;2.90;;
8333;SDS011;4204;43.004;23.052;2023-04-15T00:39:19;4.83;;;2.73;;
8333;SDS011;4204;43.004;23.052;2023-04-15T00:41:48;4.13;;;2.40;;
8333;SDS011;4204;43.004;23.052;2023-04-15T00:44:16;4.03;;;2.70;;
8333;SDS011;4204;43.004;23.052;2023-04-15T00:46:44;5.47;;;2.80;;
8333;SDS011;4204;43.004;23.052;2023-04-15T00:49:12;3.40;;;2.80;;
8333;SDS011;4204;43.004;23.052;2023-04-15T00:51:40;3.33;;;2.57;;
8333;SDS011;4204;43.004;23.052;2023-04-15T00:54:10;4.53;;;2.60;;
8333;SDS011;4204;43.004;23.052;2023-04-15T00:56:38;5.27;;;2.50;;
8333;SDS011;4204;43.004;23.052;2023-04-15T00:59:06;3.27;;;2.07;;
8333;SDS011;4204;43.004;23.052;2023-04-15T01:01:34;3.20;;;2.50;;
8333;SDS011;4204;43.004;23.052;2023-04-15T01:04:03;4.77;;;2.70;;
8333;SDS011;4204;43.004;23.052;2023-04-15T01:06:31;5.20;;;2.23;;
8333;SDS011;4204;43.004;23.052;2023-04-15T01:08:58;4.33;;;2.50;;
8333;SDS011;4204;43.004;23.052;2023-04-15T01:11:27;4.37;;;2.57;;
8333;SDS011;4204;43.004;23.052;2023-04-15T01:13:55;4.23;;;2.40;;
8333;SDS011;4204;43.004;23.052;2023-04-15T01:16:25;5.83;;;2.40;;
8333;SDS011;4204;43.004;23.052;2023-04-15T01:18:53;2.40;;;2.00;;
8333;SDS011;4204;43.004;23.052;2023-04-15T01:21:22;5.40;;;2.17;;
8333;SDS011;4204;43.004;23.052;2023-04-15T01:23:50;3.47;;;2.20;;
8333;SDS011;4204;43.004;23.052;2023-04-15T01:26:21;2.90;;;1.90;;
8333;SDS011;4204;43.004;23.052;2023-04-15T01:28:49;2.37;;;2.10;;
8333;SDS011;4204;43.004;23.052;2023-04-15T01:31:17;3.47;;;2.10;;
8333;SDS011;4204;43.004;23.052;2023-04-15T01:33:45;3.23;;;2.00;;
8333;SDS011;4204;43.004;23.052;2023-04-15T01:36:33;2.83;;;1.63;;
8333;SDS011;4204;43.004;23.052;2023-04-15T01:39:00;2.20;;;1.93;;
8333;SDS011;4204;43.004;23.052;2023-04-15T01:41:29;3.27;;;1.60;;
8333;SDS011;4204;43.004;23.052;2023-04-15T01:43:58;1.57;;;1.37;;
8333;SDS011;4204;43.004;23.052;2023-04-15T01:46:29;1.53;;;1.30;;
8333;SDS011;4204;43.004;23.052;2023-04-15T01:49:01;1.63;;;1.07;;
8333;SDS011;4204;43.004;23.052;2023-04-15T01:51:32;2.83;;;1.40;;
8333;SDS011;4204;43.004;23.052;2023-04-15T01:54:01;2.00;;;1.40;;
8333;SDS011;4204;43.004;23.052;2023-04-15T01:56:32;1.93;;;1.47;;
8333;SDS011;4204;43.004;23.052;2023-04-15T01:59:01;1.63;;;1.20;;
8333;SDS011;4204;43.004;23.052;2023-04-15T02:01:30;1.57;;;1.10;;
8333;SDS011;4204;43.004;23.052;2023-04-15T02:04:00;1.20;;;1.10;;
8333;SDS011;4204;43.004;23.052;2023-04-15T02:06:32;1.73;;;1.23;;
8333;SDS011;4204;43.004;23.052;2023-04-15T02:09:01;2.20;;;1.30;;
8333;SDS011;4204;43.004;23.052;2023-04-15T02:11:32;3.20;;;1.63;;
8333;SDS011;4204;43.004;23.052;2023-04-15T02:14:01;1.50;;;1.30;;
8333;SDS011;4204;43.004;23.052;2023-04-15T02:16:30;2.87;;;1.30;;
8333;SDS011;4204;43.004;23.052;2023-04-15T02:18:59;1.40;;;1.10;;
8333;SDS011;4204;43.004;23.052;2023-04-15T02:21:28;1.60;;;1.30;;
8333;SDS011;4204;43.004;23.052;2023-04-15T02:23:58;2.37;;;1.30;;
8333;SDS011;4204;43.004;23.052;2023-04-15T02:26:27;1.67;;;1.30;;
8333;SDS011;4204;43.004;23.052;2023-04-15T02:29:00;2.50;;;1.20;;
8333;SDS011;4204;43.004;23.052;2023-04-15T02:31:29;1.17;;;1.07;;
8333;SDS011;4204;43.004;23.052;2023-04-15T02:34:02;2.63;;;1.40;;
8333;SDS011;4204;43.004;23.052;2023-04-15T02:36:32;2.27;;;1.77;;
8333;SDS011;4204;43.004;23.052;2023-04-15T02:39:01;1.47;;;1.37;;
8333;SDS011;4204;43.004;23.052;2023-04-15T02:41:30;3.13;;;1.33;;
8333;SDS011;4204;43.004;23.052;2023-04-15T02:44:01;2.17;;;1.40;;
8333;SDS011;4204;43.004;23.052;2023-04-15T02:46:31;1.40;;;1.30;;
8333;SDS011;4204;43.004;23.052;2023-04-15T02:49:00;2.10;;;1.47;;
8333;SDS011;4204;43.004;23.052;2023-04-15T02:51:29;2.80;;;1.40;;
8333;SDS011;4204;43.004;23.052;2023-04-15T02:53:59;1.20;;;1.10;;
8333;SDS011;4204;43.004;23.052;2023-04-15T02:56:28;1.53;;;1.23;;
8333;SDS011;4204;43.004;23.052;2023-04-15T02:58:57;3.17;;;1.10;;
8333;SDS011;4204;43.004;23.052;2023-04-15T03:01:28;2.30;;;1.37;;
8333;SDS011;4204;43.004;23.052;2023-04-15T03:04:00;1.60;;;1.30;;
8333;SDS011;4204;43.004;23.052;2023-04-15T03:06:29;2.40;;;1.20;;
8333;SDS011;4204;43.004;23.052;2023-04-15T03:08:58;1.87;;;1.20;;
8333;SDS011;4204;43.004;23.052;2023-04-15T03:11:29;2.37;;;1.10;;
8333;SDS011;4204;43.004;23.052;2023-04-15T03:13:59;1.97;;;1.30;;
8333;SDS011;4204;43.004;23.052;2023-04-15T03:16:34;2.03;;;1.60;;
8333;SDS011;4204;43.004;23.052;2023-04-15T03:19:03;1.80;;;1.40;;
8333;SDS011;4204;43.004;23.052;2023-04-15T03:21:33;2.53;;;1.43;;
8333;SDS011;4204;43.004;23.052;2023-04-15T03:24:03;1.30;;;1.13;;
8333;SDS011;4204;43.004;23.052;2023-04-15T03:26:32;1.83;;;1.23;;
8333;SDS011;4204;43.004;23.052;2023-04-15T03:29:07;3.40;;;1.30;;
8333;SDS011;4204;43.004;23.052;2023-04-15T03:31:37;2.03;;;1.13;;
8333;SDS011;4204;43.004;23.052;2023-04-15T03:34:06;1.50;;;1.07;;
8333;SDS011;4204;43.004;23.052;2023-04-15T03:36:36;1.40;;;1.10;;
8333;SDS011;4204;43.004;23.052;2023-04-15T03:39:04;3.90;;;1.20;;
8333;SDS011;4204;43.004;23.052;2023-04-15T03:41:33;1.73;;;1.20;;
8333;SDS011;4204;43.004;23.052;2023-04-15T03:44:02;2.03;;;1.47;;
8333;SDS011;4204;43.004;23.052;2023-04-15T03:46:31;2.27;;;1.60;;
8333;SDS011;4204;43.004;23.052;2023-04-15T03:49:01;1.47;;;1.23;;
8333;SDS011;4204;43.004;23.052;2023-04-15T03:51:31;2.80;;;1.30;;
8333;SDS011;4204;43.004;23.052;2023-04-15T03:53:59;2.47;;;1.30;;
8333;SDS011;4204;43.004;23.052;2023-04-15T03:56:28;2.47;;;1.20;;
8333;SDS011;4204;43.004;23.052;2023-04-15T03:58:57;1.53;;;1.33;;
8333;SDS011;4204;43.004;23.052;2023-04-15T04:01:26;7.27;;;4.67;;
8333;SDS011;4204;43.004;23.052;2023-04-15T04:03:55;4.77;;;3.47;;
8333;SDS011;4204;43.004;23.052;2023-04-15T04:06:26;9.87;;;5.20;;
8333;SDS011;4204;43.004;23.052;2023-04-15T04:08:55;2.83;;;1.87;;
8333;SDS011;4204;43.004;23.052;2023-04-15T04:11:24;2.40;;;1.40;;
8333;SDS011;4204;43.004;23.052;2023-04-15T04:13:54;7.13;;;1.97;;
8333;SDS011;4204;43.004;23.052;2023-04-15T04:16:23;3.07;;;1.40;;
8333;SDS011;4204;43.004;23.052;2023-04-15T04:18:52;2.77;;;1.70;;
8333;SDS011;4204;43.004;23.052;2023-04-15T04:21:21;4.23;;;1.90;;
8333;SDS011;4204;43.004;23.052;2023-04-15T04:23:51;5.93;;;2.00;;
8333;SDS011;4204;43.004;23.052;2023-04-15T04:26:20;4.47;;;1.77;;
8333;SDS011;4204;43.004;23.052;2023-04-15T04:28:49;3.83;;;1.80;;
8333;SDS011;4204;43.004;23.052;2023-04-15T04:31:18;2.53;;;1.60;;
8333;SDS011;4204;43.004;23.052;2023-04-15T04:33:47;2.70;;;1.50;;
8333;SDS011;4204;43.004;23.052;2023-04-15T04:36:16;2.90;;;1.57;;
8333;SDS011;4204;43.004;23.052;2023-04-15T04:38:45;3.97;;;1.60;;
8333;SDS011;4204;43.004;23.052;2023-04-15T04:41:16;6.10;;;1.60;;
8333;SDS011;4204;43.004;23.052;2023-04-15T04:43:45;5.60;;;2.40;;
8333;SDS011;4204;43.004;23.052;2023-04-15T04:46:14;3.30;;;1.70;;
8333;SDS011;4204;43.004;23.052;2023-04-15T04:48:43;4.83;;;1.50;;
8333;SDS011;4204;43.004;23.052;2023-04-15T04:51:13;2.07;;;1.40;;
8333;SDS011;4204;43.004;23.052;2023-04-15T04:53:42;5.47;;;1.77;;
8333;SDS011;4204;43.004;23.052;2023-04-15T04:56:11;4.60;;;1.20;;
8333;SDS011;4204;43.004;23.052;2023-04-15T04:58:42;3.67;;;1.40;;
8333;SDS011;4204;43.004;23.052;2023-04-15T05:01:11;2.03;;;1.83;;
8333;SDS011;4204;43.004;23.052;2023-04-15T05:03:40;2.40;;;1.90;;
8333;SDS011;4204;43.004;23.052;2023-04-15T05:06:09;1.33;;;1.20;;
8333;SDS011;4204;43.004;23.052;2023-04-15T05:08:38;1.30;;;0.93;;
8333;SDS011;4204;43.004;23.052;2023-04-15T05:11:08;1.50;;;1.20;;
8333;SDS011;4204;43.004;23.052;2023-04-15T05:13:37;2.10;;;1.17;;
8333;SDS011;4204;43.004;23.052;2023-04-15T05:16:08;1.60;;;1.20;;
8333;SDS011;4204;43.004;23.052;2023-04-15T05:18:36;1.83;;;1.27;;
8333;SDS011;4204;43.004;23.052;2023-04-15T05:21:05;1.63;;;1.20;;
8333;SDS011;4204;43.004;23.052;2023-04-15T05:23:35;1.30;;;1.20;;
8333;SDS011;4204;43.004;23.052;2023-04-15T05:26:04;3.00;;;1.50;;
8333;SDS011;4204;43.004;23.052;2023-04-15T05:28:33;2.70;;;2.17;;
8333;SDS011;4204;43.004;23.052;2023-04-15T05:31:02;6.70;;;2.93;;
8333;SDS011;4204;43.004;23.052;2023-04-15T05:33:32;5.90;;;3.57;;
8333;SDS011;4204;43.004;23.052;2023-04-15T05:36:01;8.67;;;3.90;;
8333;SDS011;4204;43.004;23.052;2023-04-15T05:38:30;9.33;;;4.57;;
8333;SDS011;4204;43.004;23.052;2023-04-15T05:40:59;7.17;;;4.90;;
8333;SDS011;4204;43.004;23.052;2023-04-15T05:43:29;7.40;;;4.43;;
8333;SDS011;4204;43.004;23.052;2023-04-15T05:45:58;7.40;;;4.37;;
8333;SDS011;4204;43.004;23.052;2023-04-15T05:48:27;7.77;;;3.80;;
8333;SDS011;4204;43.004;23.052;2023-04-15T05:50:57;10.60;;;5.23;;
8333;SDS011;4204;43.004;23.052;2023-04-15T05:53:27;5.30;;;3.00;;
8333;SDS011;4204;43.004;23.052;2023-04-15T05:55:56;3.67;;;2.40;;
8333;SDS011;4204;43.004;23.052;2023-04-15T05:58:25;5.80;;;2.70;;
8333;SDS011;4204;43.004;23.052;2023-04-15T06:00:54;6.23;;;2.70;;
8333;SDS011;4204;43.004;23.052;2023-04-15T06:03:23;2.77;;;1.97;;
8333;SDS011;4204;43.004;23.052;2023-04-15T06:05:52;2.97;;;2.03;;
8333;SDS011;4204;43.004;23.052;2023-04-15T06:08:22;2.87;;;2.07;;
8333;SDS011;4204;43.004;23.052;2023-04-15T06:10:51;7.93;;;2.20;;
8333;SDS011;4204;43.004;23.052;2023-04-15T06:13:20;3.40;;;2.30;;
8333;SDS011;4204;43.004;23.052;2023-04-15T06:15:50;4.37;;;2.60;;
8333;SDS011;4204;43.004;23.052;2023-04-15T06:18:19;5.47;;;2.40;;
8333;SDS011;4204;43.004;23.052;2023-04-15T06:20:48;4.20;;;1.90;;
8333;SDS011;4204;43.004;23.052;2023-04-15T06:23:18;5.20;;;2.20;;
8333;SDS011;4204;43.004;23.052;2023-04-15T06:25:48;4.70;;;2.00;;
8333;SDS011;4204;43.004;23.052;2023-04-15T06:28:17;3.23;;;2.00;;
8333;SDS011;4204;43.004;23.052;2023-04-15T06:30:46;3.03;;;1.30;;
8333;SDS011;4204;43.004;23.052;2023-04-15T06:33:15;3.60;;;1.60;;
8333;SDS011;4204;43.004;23.052;2023-04-15T06:35:44;2.67;;;1.50;;
8333;SDS011;4204;43.004;23.052;2023-04-15T06:38:14;2.13;;;1.50;;
8333;SDS011;4204;43.004;23.052;2023-04-15T06:40:43;7.27;;;1.87;;
8333;SDS011;4204;43.004;23.052;2023-04-15T06:43:14;2.50;;;1.47;;
8333;SDS011;4204;43.004;23.052;2023-04-15T06:45:43;3.70;;;1.90;;
8333;SDS011;4204;43.004;23.052;2023-04-15T06:48:12;3.17;;;1.30;;
8333;SDS011;4204;43.004;23.052;2023-04-15T06:50:41;7.43;;;1.60;;
8333;SDS011;4204;43.004;23.052;2023-04-15T06:53:11;3.70;;;1.47;;
8333;SDS011;4204;43.004;23.052;2023-04-15T06:55:40;4.73;;;1.77;;
8333;SDS011;4204;43.004;23.052;2023-04-15T06:58:09;10.13;;;5.67;;
8333;SDS011;4204;43.004;23.052;2023-04-15T07:00:39;4.37;;;1.90;;
8333;SDS011;4204;43.004;23.052;2023-04-15T07:03:08;3.47;;;2.37;;
8333;SDS011;4204;43.004;23.052;2023-04-15T07:05:39;5.43;;;1.43;;
8333;SDS011;4204;43.004;23.052;2023-04-15T07:08:08;3.70;;;1.30;;
8333;SDS011;4204;43.004;23.052;2023-04-15T07:10:37;1.63;;;1.40;;
8333;SDS011;4204;43.004;23.052;2023-04-15T07:13:06;2.37;;;1.20;;
8333;SDS011;4204;43.004;23.052;2023-04-15T07:15:35;2.90;;;1.10;;
8333;SDS011;4204;43.004;23.052;2023-04-15T07:18:06;6.87;;;3.87;;
8333;SDS011;4204;43.004;23.052;2023-04-15T07:20:36;6.03;;;4.60;;
8333;SDS011;4204;43.004;23.052;2023-04-15T07:23:05;2.90;;;2.60;;
8333;SDS011;4204;43.004;23.052;2023-04-15T07:25:34;11.03;;;8.43;;
8333;SDS011;4204;43.004;23.052;2023-04-15T07:28:04;5.23;;;4.47;;
8333;SDS011;4204;43.004;23.052;2023-04-15T07:30:33;5.17;;;3.50;;
8333;SDS011;4204;43.004;23.052;2023-04-15T07:33:02;4.67;;;3.73;;
8333;SDS011;4204;43.004;23.052;2023-04-15T07:35:32;2.33;;;1.20;;
8333;SDS011;4204;43.004;23.052;2023-04-15T07:38:02;3.30;;;1.50;;
8333;SDS011;4204;43.004;23.052;2023-04-15T07:40:31;2.17;;;1.50;;
8333;SDS011;4204;43.004;23.052;2023-04-15T07:43:00;3.97;;;1.67;;
8333;SDS011;4204;43.004;23.052;2023-04-15T07:45:29;2.67;;;1.30;;
8333;SDS011;4204;43.004;23.052;2023-04-15T07:47:59;2.13;;;1.53;;
8333;SDS011;4204;43.004;23.052;2023-04-15T07:50:28;1.67;;;1.03;;
8333;SDS011;4204;43.004;23.052;2023-04-15T07:52:58;2.53;;;1.40;;
8333;SDS011;4204;43.004;23.052;2023-04-15T07:55:27;5.70;;;4.00;;
8333;SDS011;4204;43.004;23.052;2023-04-15T07:57:57;7.97;;;3.90;;
8333;SDS011;4204;43.004;23.052;2023-04-15T08:00:26;16.80;;;12.13;;
8333;SDS011;4204;43.004;23.052;2023-04-15T08:02:55;41.47;;;25.90;;
8333;SDS011;4204;43.004;23.052;2023-04-15T08:05:25;20.10;;;12.63;;
8333;SDS011;4204;43.004;23.052;2023-04-15T08:07:55;27.63;;;18.23;;
8333;SDS011;4204;43.004;23.052;2023-04-15T08:10:27;5.53;;;2.20;;
8333;SDS011;4204;43.004;23.052;2023-04-15T08:12:57;2.67;;;1.30;;
8333;SDS011;4204;43.004;23.052;2023-04-15T08:15:26;2.23;;;1.50;;
8333;SDS011;4204;43.004;23.052;2023-04-15T08:17:55;1.70;;;1.17;;
8333;SDS011;4204;43.004;23.052;2023-04-15T08:20:24;2.00;;;1.10;;
8333;SDS011;4204;43.004;23.052;2023-04-15T08:22:53;3.53;;;3.13;;
8333;SDS011;4204;43.004;23.052;2023-04-15T08:25:22;6.17;;;1.40;;
8333;SDS011;4204;43.004;23.052;2023-04-15T08:27:54;3.47;;;1.20;;
8333;SDS011;4204;43.004;23.052;2023-04-15T08:30:23;1.70;;;1.57;;
8333;SDS011;4204;43.004;23.052;2023-04-15T08:32:52;3.07;;;1.70;;
8333;SDS011;4204;43.004;23.052;2023-04-15T08:35:21;3.60;;;3.00;;
8333;SDS011;4204;43.004;23.052;2023-04-15T08:37:50;2.07;;;1.47;;
8333;SDS011;4204;43.004;23.052;2023-04-15T08:40:19;3.33;;;1.47;;
8333;SDS011;4204;43.004;23.052;2023-04-15T08:42:49;1.30;;;1.20;;
8333;SDS011;4204;43.004;23.052;2023-04-15T08:45:22;3.10;;;1.40;;
8333;SDS011;4204;43.004;23.052;2023-04-15T08:47:51;3.47;;;1.60;;
8333;SDS011;4204;43.004;23.052;2023-04-15T08:50:24;1.97;;;1.50;;
8333;SDS011;4204;43.004;23.052;2023-04-15T08:52:54;1.43;;;1.10;;
8333;SDS011;4204;43.004;23.052;2023-04-15T08:55:24;2.03;;;1.33;;
8333;SDS011;4204;43.004;23.052;2023-04-15T08:57:55;2.93;;;1.40;;
8333;SDS011;4204;43.004;23.052;2023-04-15T09:00:26;2.93;;;2.10;;
8333;SDS011;4204;43.004;23.052;2023-04-15T09:02:55;1.83;;;1.47;;
8333;SDS011;4204;43.004;23.052;2023-04-15T09:05:24;1.30;;;1.20;;
8333;SDS011;4204;43.004;23.052;2023-04-15T09:07:53;1.53;;;1.20;;
8333;SDS011;4204;43.004;23.052;2023-04-15T09:10:23;2.43;;;1.50;;
8333;SDS011;4204;43.004;23.052;2023-04-15T09:12:52;2.70;;;1.20;;
8333;SDS011;4204;43.004;23.052;2023-04-15T09:15:21;1.80;;;1.20;;
8333;SDS011;4204;43.004;23.052;2023-04-15T09:17:54;1.90;;;1.20;;
8333;SDS011;4204;43.004;23.052;2023-04-15T09:20:23;1.30;;;1.20;;
8333;SDS011;4204;43.004;23.052;2023-04-15T09:22:52;2.23;;;1.17;;
8333;SDS011;4204;43.004;23.052;2023-04-15T09:25:25;1.87;;;1.20;;
8333;SDS011;4204;43.004;23.052;2023-04-15T09:27:55;2.60;;;1.43;;
8333;SDS011;4204;43.004;23.052;2023-04-15T09:30:24;2.33;;;1.40;;
8333;SDS011;4204;43.004;23.052;2023-04-15T09:32:55;2.07;;;1.30;;
8333;SDS011;4204;43.004;23.052;2023-04-15T09:35:25;1.23;;;1.13;;
8333;SDS011;4204;43.004;23.052;2023-04-15T09:38:00;2.10;;;1.23;;
8333;SDS011;4204;43.004;23.052;2023-04-15T09:40:30;2.80;;;1.30;;
8333;SDS011;4204;43.004;23.052;2023-04-15T09:43:00;2.13;;;1.40;;
8333;SDS011;4204;43.004;23.052;2023-04-15T09:45:30;1.93;;;1.37;;
8333;SDS011;4204;43.004;23.052;2023-04-15T09:48:14;2.97;;;1.70;;
8333;SDS011;4204;43.004;23.052;2023-04-15T09:50:43;2.63;;;1.50;;
8333;SDS011;4204;43.004;23.052;2023-04-15T09:53:14;2.07;;;1.43;;
8333;SDS011;4204;43.004;23.052;2023-04-15T09:55:44;2.23;;;1.27;;
8333;SDS011;4204;43.004;23.052;2023-04-15T09:58:17;1.67;;;1.00;;
8333;SDS011;4204;43.004;23.052;2023-04-15T10:00:47;1.87;;;1.30;;
8333;SDS011;4204;43.004;23.052;2023-04-15T10:03:19;1.83;;;1.17;;
8333;SDS011;4204;43.004;23.052;2023-04-15T10:05:49;2.53;;;0.90;;
8333;SDS011;4204;43.004;23.052;2023-04-15T10:08:19;3.27;;;1.17;;
8333;SDS011;4204;43.004;23.052;2023-04-15T10:10:48;2.70;;;1.37;;
8333;SDS011;4204;43.004;23.052;2023-04-15T10:13:19;1.63;;;1.47;;
8333;SDS011;4204;43.004;23.052;2023-04-15T10:15:49;2.13;;;1.40;;
8333;SDS011;4204;43.004;23.052;2023-04-15T10:18:20;1.10;;;1.00;;
8333;SDS011;4204;43.004;23.052;2023-04-15T10:20:51;3.43;;;2.07;;
8333;SDS011;4204;43.004;23.052;2023-04-15T10:23:21;4.47;;;3.00;;
8333;SDS011;4204;43.004;23.052;2023-04-15T10:25:52;6.73;;;4.80;;
8333;SDS011;4204;43.004;23.052;2023-04-15T10:28:22;3.53;;;1.90;;
8333;SDS011;4204;43.004;23.052;2023-04-15T10:30:51;3.90;;;2.00;;
8333;SDS011;4204;43.004;23.052;2023-04-15T10:33:22;3.83;;;2.80;;
8333;SDS011;4204;43.004;23.052;2023-04-15T10:35:52;2.90;;;2.60;;
8333;SDS011;4204;43.004;23.052;2023-04-15T10:38:31;1.90;;;1.40;;
8333;SDS011;4204;43.004;23.052;2023-04-15T10:41:14;2.10;;;1.57;;
8333;SDS011;4204;43.004;23.052;2023-04-15T10:43:47;1.67;;;1.00;;
8333;SDS011;4204;43.004;23.052;2023-04-15T10:46:17;3.40;;;1.90;;
8333;SDS011;4204;43.004;23.052;2023-04-15T10:48:49;2.60;;;1.60;;
8333;SDS011;4204;43.004;23.052;2023-04-15T10:51:28;1.10;;;1.00;;
8333;SDS011;4204;43.004;23.052;2023-04-15T10:53:58;1.33;;;1.20;;
8333;SDS011;4204;43.004;23.052;2023-04-15T10:56:28;1.87;;;0.90;;
8333;SDS011;4204;43.004;23.052;2023-04-15T10:58:58;1.80;;;0.90;;
8333;SDS011;4204;43.004;23.052;2023-04-15T11:04:21;2.10;;;1.00;;
8333;SDS011;4204;43.004;23.052;2023-04-15T11:07:10;1.53;;;1.00;;
8333;SDS011;4204;43.004;23.052;2023-04-15T11:09:39;2.17;;;1.30;;
8333;SDS011;4204;43.004;23.052;2023-04-15T11:12:09;1.07;;;0.80;;
8333;SDS011;4204;43.004;23.052;2023-04-15T11:14:38;1.67;;;1.00;;
8333;SDS011;4204;43.004;23.052;2023-04-15T11:17:09;4.20;;;1.20;;
8333;SDS011;4204;43.004;23.052;2023-04-15T11:19:40;1.70;;;1.20;;
8333;SDS011;4204;43.004;23.052;2023-04-15T11:22:11;1.10;;;1.00;;
8333;SDS011;4204;43.004;23.052;2023-04-15T11:24:45;1.23;;;0.90;;
8333;SDS011;4204;43.004;23.052;2023-04-15T11:27:19;2.27;;;1.00;;
8333;SDS011;4204;43.004;23.052;2023-04-15T11:29:49;1.03;;;0.80;;
8333;SDS011;4204;43.004;23.052;2023-04-15T11:32:18;1.50;;;1.03;;
8333;SDS011;4204;43.004;23.052;2023-04-15T11:34:52;1.60;;;1.10;;
8333;SDS011;4204;43.004;23.052;2023-04-15T11:37:26;2.37;;;1.10;;
8333;SDS011;4204;43.004;23.052;2023-04-15T11:39:56;1.87;;;0.90;;
8333;SDS011;4204;43.004;23.052;2023-04-15T11:42:25;1.10;;;0.90;;
8333;SDS011;4204;43.004;23.052;2023-04-15T11:45:05;1.13;;;0.90;;
8333;SDS011;4204;43.004;23.052;2023-04-15T11:47:34;2.23;;;1.20;;
8333;SDS011;4204;43.004;23.052;2023-04-15T11:50:17;1.33;;;0.80;;
8333;SDS011;4204;43.004;23.052;2023-04-15T11:52:52;3.03;;;2.10;;
8333;SDS011;4204;43.004;23.052;2023-04-15T11:55:20;4.93;;;3.73;;
8333;SDS011;4204;43.004;23.052;2023-04-15T11:57:49;2.37;;;2.00;;
8333;SDS011;4204;43.004;23.052;2023-04-15T12:00:16;1.43;;;0.93;;
8333;SDS011;4204;43.004;23.052;2023-04-15T12:02:46;1.70;;;1.00;;
8333;SDS011;4204;43.004;23.052;2023-04-15T12:05:13;1.10;;;1.00;;
8333;SDS011;4204;43.004;23.052;2023-04-15T12:07:58;1.00;;;0.80;;
8333;SDS011;4204;43.004;23.052;2023-04-15T12:10:26;1.33;;;1.10;;
8333;SDS011;4204;43.004;23.052;2023-04-15T12:12:54;1.73;;;1.10;;
8333;SDS011;4204;43.004;23.052;2023-04-15T12:15:22;1.63;;;0.90;;
8333;SDS011;4204;43.004;23.052;2023-04-15T12:17:53;2.07;;;1.10;;
8333;SDS011;4204;43.004;23.052;2023-04-15T12:20:24;0.93;;;0.90;;
8333;SDS011;4204;43.004;23.052;2023-04-15T12:22:52;1.10;;;0.80;;
8333;SDS011;4204;43.004;23.052;2023-04-15T12:25:33;2.33;;;1.20;;
8333;SDS011;4204;43.004;23.052;2023-04-15T12:28:00;1.70;;;1.07;;
8333;SDS011;4204;43.004;23.052;2023-04-15T12:30:28;1.60;;;1.00;;
8333;SDS011;4204;43.004;23.052;2023-04-15T12:32:56;1.50;;;0.87;;
8333;SDS011;4204;43.004;23.052;2023-04-15T12:35:24;2.30;;;1.40;;
8333;SDS011;4204;43.004;23.052;2023-04-15T12:37:52;6.27;;;0.97;;
8333;SDS011;4204;43.004;23.052;2023-04-15T12:40:20;1.13;;;0.90;;
8333;SDS011;4204;43.004;23.052;2023-04-15T12:42:49;2.93;;;1.37;;
8333;SDS011;4204;43.004;23.052;2023-04-15T12:45:17;3.33;;;1.23;;
8333;SDS011;4204;43.004;23.052;2023-04-15T12:47:44;2.20;;;1.80;;
8333;SDS011;4204;43.004;23.052;2023-04-15T12:50:12;1.63;;;1.20;;
8333;SDS011;4204;43.004;23.052;2023-04-15T12:52:39;1.00;;;0.90;;
8333;SDS011;4204;43.004;23.052;2023-04-15T12:55:08;2.87;;;1.10;;
8333;SDS011;4204;43.004;23.052;2023-04-15T12:57:35;5.13;;;4.33;;
8333;SDS011;4204;43.004;23.052;2023-04-15T13:00:06;1.87;;;1.27;;
8333;SDS011;4204;43.004;23.052;2023-04-15T13:02:34;1.40;;;0.80;;
8333;SDS011;4204;43.004;23.052;2023-04-15T13:05:05;3.40;;;0.93;;
8333;SDS011;4204;43.004;23.052;2023-04-15T13:07:33;3.23;;;1.90;;
8333;SDS011;4204;43.004;23.052;2023-04-15T13:10:01;1.50;;;0.80;;
8333;SDS011;4204;43.004;23.052;2023-04-15T13:12:29;2.10;;;1.20;;
8333;SDS011;4204;43.004;23.052;2023-04-15T13:14:58;3.30;;;1.50;;
8333;SDS011;4204;43.004;23.052;2023-04-15T13:17:27;1.57;;;1.17;;
8333;SDS011;4204;43.004;23.052;2023-04-15T13:19:55;1.27;;;1.10;;
8333;SDS011;4204;43.004;23.052;2023-04-15T13:22:23;0.97;;;0.93;;
8333;SDS011;4204;43.004;23.052;2023-04-15T13:24:50;2.37;;;1.27;;
8333;SDS011;4204;43.004;23.052;2023-04-15T13:27:18;1.13;;;1.00;;
8333;SDS011;4204;43.004;23.052;2023-04-15T13:29:46;1.03;;;0.90;;
8333;SDS011;4204;43.004;23.052;2023-04-15T13:32:14;2.60;;;1.10;;
8333;SDS011;4204;43.004;23.052;2023-04-15T13:34:43;2.20;;;1.10;;
8333;SDS011;4204;43.004;23.052;2023-04-15T13:37:11;4.70;;;1.50;;
8333;SDS011;4204;43.004;23.052;2023-04-15T13:39:39;1.30;;;1.20;;
8333;SDS011;4204;43.004;23.052;2023-04-15T13:42:07;1.40;;;1.30;;
8333;SDS011;4204;43.004;23.052;2023-04-15T13:44:35;2.80;;;1.37;;
8333;SDS011;4204;43.004;23.052;2023-04-15T13:47:03;1.83;;;1.10;;
8333;SDS011;4204;43.004;23.052;2023-04-15T13:49:31;4.30;;;1.40;;
8333;SDS011;4204;43.004;23.052;2023-04-15T13:52:01;1.87;;;1.40;;
8333;SDS011;4204;43.004;23.052;2023-04-15T13:54:29;0.80;;;0.80;;
8333;SDS011;4204;43.004;23.052;2023-04-15T13:56:56;2.47;;;0.87;;
8333;SDS011;4204;43.004;23.052;2023-04-15T13:59:24;1.83;;;0.90;;
8333;SDS011;4204;43.004;23.052;2023-04-15T14:01:52;1.07;;;0.77;;
8333;SDS011;4204;43.004;23.052;2023-04-15T14:04:20;0.97;;;0.70;;
8333;SDS011;4204;43.004;23.052;2023-04-15T14:06:48;2.57;;;0.93;;
8333;SDS011;4204;43.004;23.052;2023-04-15T14:09:17;2.20;;;0.80;;
8333;SDS011;4204;43.004;23.052;2023-04-15T14:11:47;2.53;;;1.30;;
8333;SDS011;4204;43.004;23.052;2023-04-15T14:14:14;1.90;;;1.30;;
8333;SDS011;4204;43.004;23.052;2023-04-15T14:16:42;2.03;;;1.40;;
8333;SDS011;4204;43.004;23.052;2023-04-15T14:19:10;1.93;;;0.90;;
8333;SDS011;4204;43.004;23.052;2023-04-15T14:21:38;1.10;;;0.70;;
8333;SDS011;4204;43.004;23.052;2023-04-15T14:24:06;1.17;;;0.90;;
8333;SDS011;4204;43.004;23.052;2023-04-15T14:26:36;1.43;;;1.00;;
8333;SDS011;4204;43.004;23.052;2023-04-15T14:29:04;0.83;;;0.70;;
8333;SDS011;4204;43.004;23.052;2023-04-15T14:31:31;0.70;;;0.70;;
8333;SDS011;4204;43.004;23.052;2023-04-15T14:33:59;2.70;;;1.03;;
8333;SDS011;4204;43.004;23.052;2023-04-15T14:36:27;1.23;;;1.10;;
8333;SDS011;4204;43.004;23.052;2023-04-15T14:38:55;1.90;;;1.27;;
8333;SDS011;4204;43.004;23.052;2023-04-15T14:41:23;0.70;;;0.70;;
8333;SDS011;4204;43.004;23.052;2023-04-15T14:43:52;1.40;;;1.00;;
8333;SDS011;4204;43.004;23.052;2023-04-15T14:46:20;1.00;;;0.90;;
8333;SDS011;4204;43.004;23.052;2023-04-15T14:48:48;1.10;;;0.80;;
8333;SDS011;4204;43.004;23.052;2023-04-15T14:51:16;2.87;;;0.93;;
8333;SDS011;4204;43.004;23.052;2023-04-15T14:53:43;2.00;;;1.30;;
8333;SDS011;4204;43.004;23.052;2023-04-15T14:56:11;1.53;;;1.10;;
8333;SDS011;4204;43.004;23.052;2023-04-15T14:58:39;2.57;;;1.70;;
8333;SDS011;4204;43.004;23.052;2023-04-15T15:01:08;2.37;;;1.87;;
8333;SDS011;4204;43.004;23.052;2023-04-15T15:03:36;1.17;;;0.83;;
8333;SDS011;4204;43.004;23.052;2023-04-15T15:06:05;1.60;;;0.90;;
8333;SDS011;4204;43.004;23.052;2023-04-15T15:08:33;3.77;;;1.40;;
8333;SDS011;4204;43.004;23.052;2023-04-15T15:11:01;4.00;;;1.70;;
8333;SDS011;4204;43.004;23.052;2023-04-15T15:13:29;1.87;;;1.47;;
8333;SDS011;4204;43.004;23.052;2023-04-15T15:15:57;3.37;;;2.67;;
8333;SDS011;4204;43.004;23.052;2023-04-15T15:18:26;3.33;;;1.87;;